TimeCDT,TemperatureF,Dew PointF,Humidity,Sea Level PressureIn,VisibilityMPH,Wind Direction,Wind SpeedMPH,Gust SpeedMPH,PrecipitationIn,Events,Conditions,WindDirDegrees,DateUTC
12:52 AM,63.0,63.0,100,29.87,5.0,NW,5.8,-,N/A,,Scattered Clouds,310,2013-08-06 05:52:00
1:52 AM,62.1,62.1,100,29.87,6.0,North,5.8,-,N/A,,Clear,10,2013-08-06 06:52:00
2:52 AM,59.0,59.0,100,29.85,4.0,Calm,Calm,-,N/A,,Clear,0,2013-08-06 07:52:00
3:24 AM,59.0,59.0,100,29.86,2.5,North,3.5,-,N/A,,Partly Cloudy,10,2013-08-06 08:24:00
3:30 AM,60.8,60.8,100,29.86,1.0,North,4.6,-,N/A,,Mist,10,2013-08-06 08:30:00
3:37 AM,60.8,60.8,100,29.86,0.2,North,3.5,-,N/A,Fog,Fog,10,2013-08-06 08:37:00
3:52 AM,57.9,57.9,100,29.83,0.2,Calm,Calm,-,N/A,Fog,Fog,0,2013-08-06 08:52:00
4:52 AM,55.9,55.9,100,29.83,0.2,SSW,3.5,-,N/A,Fog,Fog,200,2013-08-06 09:52:00
5:52 AM,55.9,55.9,100,29.83,0.2,SSW,3.5,-,N/A,Fog,Fog,200,2013-08-06 10:52:00
6:52 AM,57.0,57.0,100,29.83,0.8,South,4.6,-,0.01,,Mist,180,2013-08-06 11:52:00
7:13 AM,60.8,60.8,100,29.85,2.0,SSW,4.6,-,N/A,,Scattered Clouds,200,2013-08-06 12:13:00
7:24 AM,60.8,60.8,100,29.86,3.0,Calm,Calm,-,N/A,,Partly Cloudy,0,2013-08-06 12:24:00
7:52 AM,62.1,62.1,100,29.84,5.0,SSW,5.8,-,N/A,,Clear,200,2013-08-06 12:52:00
8:52 AM,66.9,64.9,93,29.85,9.0,SSW,5.8,-,N/A,,Clear,200,2013-08-06 13:52:00
9:52 AM,68.0,66.0,93,29.80,8.0,South,9.2,-,N/A,,Clear,170,2013-08-06 14:52:00
10:52 AM,72.0,66.0,81,29.81,10.0,Calm,Calm,-,N/A,,Clear,0,2013-08-06 15:52:00
11:52 AM,78.1,66.0,66,29.81,10.0,SSW,10.4,-,N/A,,Clear,200,2013-08-06 16:52:00
12:52 PM,81.0,66.9,62,29.80,10.0,WSW,10.4,-,N/A,,Clear,240,2013-08-06 17:52:00
1:52 PM,82.9,66.9,58,29.80,10.0,WSW,9.2,-,N/A,,Clear,250,2013-08-06 18:52:00
2:52 PM,84.0,64.9,53,29.79,10.0,West,9.2,-,N/A,,Clear,270,2013-08-06 19:52:00
3:52 PM,84.9,63.0,48,29.79,10.0,WNW,9.2,-,N/A,,Clear,300,2013-08-06 20:52:00
4:52 PM,84.9,62.1,46,29.79,10.0,WNW,8.1,-,N/A,,Clear,290,2013-08-06 21:52:00
5:52 PM,84.0,61.0,46,29.78,10.0,West,6.9,-,N/A,,Clear,270,2013-08-06 22:52:00
6:52 PM,82.0,64.0,54,29.77,10.0,SW,8.1,-,N/A,,Clear,230,2013-08-06 23:52:00
7:52 PM,78.1,64.9,64,29.76,10.0,SW,5.8,-,N/A,,Clear,230,2013-08-07 00:52:00
8:52 PM,73.0,64.9,76,29.79,10.0,West,6.9,-,N/A,,Clear,260,2013-08-07 01:52:00
9:52 PM,72.0,66.0,81,29.81,10.0,West,5.8,-,N/A,,Scattered Clouds,260,2013-08-07 02:52:00
10:52 PM,71.1,66.0,84,29.80,10.0,West,5.8,-,N/A,,Clear,270,2013-08-07 03:52:00
11:52 PM,71.1,66.0,84,29.81,10.0,NW,8.1,-,N/A,,Clear,320,2013-08-07 04:52:00